sensor_id;sensor_type;location;lat;lon;timestamp;temperature;humidity
36548;DHT22;22551;52.206;4.856;2022-10-17T00:04:56;13.50;99.90
36548;DHT22;22551;52.206;4.856;2022-10-17T00:09:58;13.40;99.90
36548;DHT22;22551;52.206;4.856;2022-10-17T00:15:04;13.40;99.90
36548;DHT22;22551;52.206;4.856;2022-10-17T00:20:08;13.40;99.90
36548;DHT22;22551;52.206;4.856;2022-10-17T00:25:11;13.30;99.90
36548;DHT22;22551;52.206;4.856;2022-10-17T00:30:16;13.30;99.90
36548;DHT22;22551;52.206;4.856;2022-10-17T00:35:19;13.20;99.90
36548;DHT22;22551;52.206;4.856;2022-10-17T00:40:21;13.20;99.90
36548;DHT22;22551;52.206;4.856;2022-10-17T00:45:26;13.20;99.90
36548;DHT22;22551;52.206;4.856;2022-10-17T00:50:30;13.20;99.90
36548;DHT22;22551;52.206;4.856;2022-10-17T00:55:35;13.20;99.90
36548;DHT22;22551;52.206;4.856;2022-10-17T01:00:45;13.20;99.90
36548;DHT22;22551;52.206;4.856;2022-10-17T01:05:48;13.30;99.90
36548;DHT22;22551;52.206;4.856;2022-10-17T01:10:57;13.30;99.90
36548;DHT22;22551;52.206;4.856;2022-10-17T01:16:08;13.30;99.90
36548;DHT22;22551;52.206;4.856;2022-10-17T01:21:29;13.40;99.90
36548;DHT22;22551;52.206;4.856;2022-10-17T01:26:47;13.40;99.90
36548;DHT22;22551;52.206;4.856;2022-10-17T01:32:03;13.40;99.90
36548;DHT22;22551;52.206;4.856;2022-10-17T01:37:17;13.40;99.90
36548;DHT22;22551;52.206;4.856;2022-10-17T01:42:25;13.40;99.90
36548;DHT22;22551;52.206;4.856;2022-10-17T01:47:31;13.40;99.90
36548;DHT22;22551;52.206;4.856;2022-10-17T01:52:38;13.40;99.90
36548;DHT22;22551;52.206;4.856;2022-10-17T01:57:48;13.30;99.90
36548;DHT22;22551;52.206;4.856;2022-10-17T02:02:55;13.40;99.90
36548;DHT22;22551;52.206;4.856;2022-10-17T02:08:00;13.40;99.90
36548;DHT22;22551;52.206;4.856;2022-10-17T02:13:08;13.40;99.90
36548;DHT22;22551;52.206;4.856;2022-10-17T02:18:24;13.40;99.90
36548;DHT22;22551;52.206;4.856;2022-10-17T02:23:37;13.40;99.90
36548;DHT22;22551;52.206;4.856;2022-10-17T02:28:48;13.40;99.90
36548;DHT22;22551;52.206;4.856;2022-10-17T02:33:58;13.50;99.90
36548;DHT22;22551;52.206;4.856;2022-10-17T02:39:03;13.60;99.90
36548;DHT22;22551;52.206;4.856;2022-10-17T02:44:06;13.60;99.90
36548;DHT22;22551;52.206;4.856;2022-10-17T02:49:16;13.70;99.90
36548;DHT22;22551;52.206;4.856;2022-10-17T02:54:22;13.80;99.90
36548;DHT22;22551;52.206;4.856;2022-10-17T02:59:29;13.90;99.90
36548;DHT22;22551;52.206;4.856;2022-10-17T03:04:34;13.90;99.90
36548;DHT22;22551;52.206;4.856;2022-10-17T03:09:36;14.00;99.90
36548;DHT22;22551;52.206;4.856;2022-10-17T03:14:38;14.10;99.90
36548;DHT22;22551;52.206;4.856;2022-10-17T03:19:42;14.10;99.90
36548;DHT22;22551;52.206;4.856;2022-10-17T03:24:45;14.30;99.90
36548;DHT22;22551;52.206;4.856;2022-10-17T03:29:47;14.50;99.90
36548;DHT22;22551;52.206;4.856;2022-10-17T03:34:50;14.50;99.90
36548;DHT22;22551;52.206;4.856;2022-10-17T03:39:53;14.60;99.90
36548;DHT22;22551;52.206;4.856;2022-10-17T03:44:55;14.60;99.90
36548;DHT22;22551;52.206;4.856;2022-10-17T03:49:59;14.70;99.90
36548;DHT22;22551;52.206;4.856;2022-10-17T03:55:01;14.70;99.90
36548;DHT22;22551;52.206;4.856;2022-10-17T04:00:12;14.70;99.90
36548;DHT22;22551;52.206;4.856;2022-10-17T04:05:16;14.70;99.90
36548;DHT22;22551;52.206;4.856;2022-10-17T04:10:18;14.70;99.90
36548;DHT22;22551;52.206;4.856;2022-10-17T04:15:20;14.70;99.90
36548;DHT22;22551;52.206;4.856;2022-10-17T04:20:24;14.70;99.90
36548;DHT22;22551;52.206;4.856;2022-10-17T04:25:26;14.70;99.90
36548;DHT22;22551;52.206;4.856;2022-10-17T04:30:28;14.70;99.90
36548;DHT22;22551;52.206;4.856;2022-10-17T04:35:32;14.80;99.90
36548;DHT22;22551;52.206;4.856;2022-10-17T04:40:35;14.80;99.90
36548;DHT22;22551;52.206;4.856;2022-10-17T04:45:37;14.80;99.90
36548;DHT22;22551;52.206;4.856;2022-10-17T04:50:41;14.80;99.90
36548;DHT22;22551;52.206;4.856;2022-10-17T04:55:54;14.80;99.90
36548;DHT22;22551;52.206;4.856;2022-10-17T05:00:56;14.80;99.90
36548;DHT22;22551;52.206;4.856;2022-10-17T05:06:03;14.80;99.90
36548;DHT22;22551;52.206;4.856;2022-10-17T05:11:15;14.80;99.90
36548;DHT22;22551;52.206;4.856;2022-10-17T05:16:18;14.70;99.90
36548;DHT22;22551;52.206;4.856;2022-10-17T05:21:23;14.70;99.90
36548;DHT22;22551;52.206;4.856;2022-10-17T05:26:26;14.80;99.90
36548;DHT22;22551;52.206;4.856;2022-10-17T05:31:29;14.80;99.90
36548;DHT22;22551;52.206;4.856;2022-10-17T05:36:32;14.80;99.90
36548;DHT22;22551;52.206;4.856;2022-10-17T05:41:34;14.80;99.90
36548;DHT22;22551;52.206;4.856;2022-10-17T05:46:36;14.90;99.90
36548;DHT22;22551;52.206;4.856;2022-10-17T05:51:40;14.80;99.90
36548;DHT22;22551;52.206;4.856;2022-10-17T05:56:42;14.80;99.90
36548;DHT22;22551;52.206;4.856;2022-10-17T06:01:44;14.70;99.90
36548;DHT22;22551;52.206;4.856;2022-10-17T06:06:48;14.70;99.90
36548;DHT22;22551;52.206;4.856;2022-10-17T06:11:50;14.60;99.90
36548;DHT22;22551;52.206;4.856;2022-10-17T06:16:52;14.60;99.90
36548;DHT22;22551;52.206;4.856;2022-10-17T06:21:55;14.50;99.90
36548;DHT22;22551;52.206;4.856;2022-10-17T06:26:57;14.50;99.90
36548;DHT22;22551;52.206;4.856;2022-10-17T06:31:59;14.50;99.90
36548;DHT22;22551;52.206;4.856;2022-10-17T06:37:03;14.50;99.90
36548;DHT22;22551;52.206;4.856;2022-10-17T06:42:05;14.50;99.90
36548;DHT22;22551;52.206;4.856;2022-10-17T06:47:08;14.50;99.90
36548;DHT22;22551;52.206;4.856;2022-10-17T06:52:12;14.60;99.90
36548;DHT22;22551;52.206;4.856;2022-10-17T06:57:14;14.60;99.90
36548;DHT22;22551;52.206;4.856;2022-10-17T07:02:16;14.60;99.90
36548;DHT22;22551;52.206;4.856;2022-10-17T07:07:21;14.60;99.90
36548;DHT22;22551;52.206;4.856;2022-10-17T07:12:24;14.70;99.90
36548;DHT22;22551;52.206;4.856;2022-10-17T07:17:26;14.70;99.90
36548;DHT22;22551;52.206;4.856;2022-10-17T07:22:29;14.70;99.90
36548;DHT22;22551;52.206;4.856;2022-10-17T07:27:31;14.80;99.90
36548;DHT22;22551;52.206;4.856;2022-10-17T07:32:34;14.80;99.90
36548;DHT22;22551;52.206;4.856;2022-10-17T07:37:37;14.80;99.90
36548;DHT22;22551;52.206;4.856;2022-10-17T07:42:40;14.90;99.90
36548;DHT22;22551;52.206;4.856;2022-10-17T07:47:42;15.00;99.90
36548;DHT22;22551;52.206;4.856;2022-10-17T07:52:46;15.00;99.90
36548;DHT22;22551;52.206;4.856;2022-10-17T07:57:49;15.10;99.90
36548;DHT22;22551;52.206;4.856;2022-10-17T08:02:52;15.20;99.90
36548;DHT22;22551;52.206;4.856;2022-10-17T08:07:55;15.30;99.90
36548;DHT22;22551;52.206;4.856;2022-10-17T08:12:59;15.40;99.90
36548;DHT22;22551;52.206;4.856;2022-10-17T08:18:02;15.50;99.90
36548;DHT22;22551;52.206;4.856;2022-10-17T08:23:06;15.60;99.90
36548;DHT22;22551;52.206;4.856;2022-10-17T08:28:09;15.60;99.90
36548;DHT22;22551;52.206;4.856;2022-10-17T08:33:11;15.60;99.90
36548;DHT22;22551;52.206;4.856;2022-10-17T08:38:15;15.70;99.90
36548;DHT22;22551;52.206;4.856;2022-10-17T08:43:33;15.70;99.90
36548;DHT22;22551;52.206;4.856;2022-10-17T08:48:46;15.70;99.90
36548;DHT22;22551;52.206;4.856;2022-10-17T08:53:55;15.70;99.90
36548;DHT22;22551;52.206;4.856;2022-10-17T08:59:04;15.80;99.90
36548;DHT22;22551;52.206;4.856;2022-10-17T09:04:21;15.80;99.90
36548;DHT22;22551;52.206;4.856;2022-10-17T09:09:42;15.80;99.90
36548;DHT22;22551;52.206;4.856;2022-10-17T09:14:57;15.80;99.90
36548;DHT22;22551;52.206;4.856;2022-10-17T09:20:13;15.90;99.90
36548;DHT22;22551;52.206;4.856;2022-10-17T09:25:20;15.90;99.90
36548;DHT22;22551;52.206;4.856;2022-10-17T09:30:34;16.00;99.90
36548;DHT22;22551;52.206;4.856;2022-10-17T09:35:38;16.10;99.90
36548;DHT22;22551;52.206;4.856;2022-10-17T09:40:43;16.10;99.90
36548;DHT22;22551;52.206;4.856;2022-10-17T09:45:54;16.10;99.90
36548;DHT22;22551;52.206;4.856;2022-10-17T09:51:01;16.20;99.90
36548;DHT22;22551;52.206;4.856;2022-10-17T09:56:09;16.20;99.90
36548;DHT22;22551;52.206;4.856;2022-10-17T10:01:18;16.20;99.90
36548;DHT22;22551;52.206;4.856;2022-10-17T10:06:22;16.20;99.90
36548;DHT22;22551;52.206;4.856;2022-10-17T10:11:44;16.20;99.90
36548;DHT22;22551;52.206;4.856;2022-10-17T10:16:48;16.20;99.90
36548;DHT22;22551;52.206;4.856;2022-10-17T10:21:55;16.40;99.90
36548;DHT22;22551;52.206;4.856;2022-10-17T10:27:00;16.30;99.90
36548;DHT22;22551;52.206;4.856;2022-10-17T10:32:08;16.30;99.90
36548;DHT22;22551;52.206;4.856;2022-10-17T10:37:18;16.40;99.90
36548;DHT22;22551;52.206;4.856;2022-10-17T10:42:25;16.40;99.90
36548;DHT22;22551;52.206;4.856;2022-10-17T10:47:30;16.30;99.90
36548;DHT22;22551;52.206;4.856;2022-10-17T10:52:40;16.20;99.90
36548;DHT22;22551;52.206;4.856;2022-10-17T10:57:46;16.20;99.90
36548;DHT22;22551;52.206;4.856;2022-10-17T11:02:55;16.10;99.90
36548;DHT22;22551;52.206;4.856;2022-10-17T11:08:06;16.10;99.90
36548;DHT22;22551;52.206;4.856;2022-10-17T11:13:20;16.00;99.90
36548;DHT22;22551;52.206;4.856;2022-10-17T11:18:27;16.00;99.90
36548;DHT22;22551;52.206;4.856;2022-10-17T11:23:36;15.90;99.90
36548;DHT22;22551;52.206;4.856;2022-10-17T11:28:42;15.60;99.90
36548;DHT22;22551;52.206;4.856;2022-10-17T11:33:47;15.50;99.90
36548;DHT22;22551;52.206;4.856;2022-10-17T11:38:55;15.50;99.90
36548;DHT22;22551;52.206;4.856;2022-10-17T11:44:10;15.50;99.90
36548;DHT22;22551;52.206;4.856;2022-10-17T11:49:19;15.60;99.90
36548;DHT22;22551;52.206;4.856;2022-10-17T11:54:27;15.70;99.90
36548;DHT22;22551;52.206;4.856;2022-10-17T11:59:47;15.80;99.90
36548;DHT22;22551;52.206;4.856;2022-10-17T12:05:01;15.90;99.90
36548;DHT22;22551;52.206;4.856;2022-10-17T12:10:20;16.00;99.90
36548;DHT22;22551;52.206;4.856;2022-10-17T12:15:30;16.30;99.90
36548;DHT22;22551;52.206;4.856;2022-10-17T12:20:34;16.50;99.90
36548;DHT22;22551;52.206;4.856;2022-10-17T12:25:47;16.60;99.90
36548;DHT22;22551;52.206;4.856;2022-10-17T12:30:58;16.60;99.90
36548;DHT22;22551;52.206;4.856;2022-10-17T12:41:54;16.80;99.90
36548;DHT22;22551;52.206;4.856;2022-10-17T12:46:58;16.90;99.90
36548;DHT22;22551;52.206;4.856;2022-10-17T12:52:57;16.90;99.90
36548;DHT22;22551;52.206;4.856;2022-10-17T12:58:05;16.90;99.90
36548;DHT22;22551;52.206;4.856;2022-10-17T13:03:15;16.90;99.90
36548;DHT22;22551;52.206;4.856;2022-10-17T13:08:21;16.90;99.90
36548;DHT22;22551;52.206;4.856;2022-10-17T13:13:34;16.90;99.90
36548;DHT22;22551;52.206;4.856;2022-10-17T13:18:40;17.10;99.90
36548;DHT22;22551;52.206;4.856;2022-10-17T13:23:42;17.20;99.90
36548;DHT22;22551;52.206;4.856;2022-10-17T13:28:45;17.10;99.90
36548;DHT22;22551;52.206;4.856;2022-10-17T13:33:54;17.00;99.90
36548;DHT22;22551;52.206;4.856;2022-10-17T13:38:59;17.00;99.90
36548;DHT22;22551;52.206;4.856;2022-10-17T13:44:11;17.00;99.90
36548;DHT22;22551;52.206;4.856;2022-10-17T13:49:20;17.00;99.90
36548;DHT22;22551;52.206;4.856;2022-10-17T13:54:35;17.00;99.90
36548;DHT22;22551;52.206;4.856;2022-10-17T13:59:43;17.00;99.90
36548;DHT22;22551;52.206;4.856;2022-10-17T14:05:00;17.10;99.90
36548;DHT22;22551;52.206;4.856;2022-10-17T14:10:05;17.10;99.90
36548;DHT22;22551;52.206;4.856;2022-10-17T14:15:21;17.10;99.90
36548;DHT22;22551;52.206;4.856;2022-10-17T14:20:28;17.20;99.90
36548;DHT22;22551;52.206;4.856;2022-10-17T14:25:32;17.40;99.90
36548;DHT22;22551;52.206;4.856;2022-10-17T14:30:38;17.50;99.90
36548;DHT22;22551;52.206;4.856;2022-10-17T14:35:52;17.40;99.90
36548;DHT22;22551;52.206;4.856;2022-10-17T14:40:58;17.40;99.90
36548;DHT22;22551;52.206;4.856;2022-10-17T14:46:02;17.30;99.90
36548;DHT22;22551;52.206;4.856;2022-10-17T14:51:07;17.20;99.90
36548;DHT22;22551;52.206;4.856;2022-10-17T14:56:22;17.20;99.90
36548;DHT22;22551;52.206;4.856;2022-10-17T15:01:25;17.20;99.90
36548;DHT22;22551;52.206;4.856;2022-10-17T15:06:31;17.10;99.90
36548;DHT22;22551;52.206;4.856;2022-10-17T15:11:35;17.20;99.90
36548;DHT22;22551;52.206;4.856;2022-10-17T15:16:38;17.10;99.90
36548;DHT22;22551;52.206;4.856;2022-10-17T15:21:42;17.10;99.90
36548;DHT22;22551;52.206;4.856;2022-10-17T15:26:44;17.00;99.90
36548;DHT22;22551;52.206;4.856;2022-10-17T15:31:49;17.00;99.90
36548;DHT22;22551;52.206;4.856;2022-10-17T15:36:54;16.90;99.90
36548;DHT22;22551;52.206;4.856;2022-10-17T15:41:59;16.80;99.90
36548;DHT22;22551;52.206;4.856;2022-10-17T15:47:01;16.70;99.90
36548;DHT22;22551;52.206;4.856;2022-10-17T15:52:07;16.70;99.90
36548;DHT22;22551;52.206;4.856;2022-10-17T15:57:16;16.60;99.90
36548;DHT22;22551;52.206;4.856;2022-10-17T16:02:22;16.50;99.90
36548;DHT22;22551;52.206;4.856;2022-10-17T16:07:26;16.50;99.90
36548;DHT22;22551;52.206;4.856;2022-10-17T16:12:28;16.40;99.90
36548;DHT22;22551;52.206;4.856;2022-10-17T16:17:37;16.30;99.90
36548;DHT22;22551;52.206;4.856;2022-10-17T16:22:42;16.20;99.90
36548;DHT22;22551;52.206;4.856;2022-10-17T16:27:46;16.10;99.90
36548;DHT22;22551;52.206;4.856;2022-10-17T16:32:50;16.00;99.90
36548;DHT22;22551;52.206;4.856;2022-10-17T16:37:57;15.90;99.90
36548;DHT22;22551;52.206;4.856;2022-10-17T16:42:59;15.90;99.90
36548;DHT22;22551;52.206;4.856;2022-10-17T16:48:01;15.80;99.90
36548;DHT22;22551;52.206;4.856;2022-10-17T16:53:05;15.70;99.90
36548;DHT22;22551;52.206;4.856;2022-10-17T16:58:07;15.70;99.90
36548;DHT22;22551;52.206;4.856;2022-10-17T17:03:09;15.60;99.90
36548;DHT22;22551;52.206;4.856;2022-10-17T17:08:12;15.60;99.90
36548;DHT22;22551;52.206;4.856;2022-10-17T17:13:15;15.50;99.90
36548;DHT22;22551;52.206;4.856;2022-10-17T17:18:17;15.50;99.90
36548;DHT22;22551;52.206;4.856;2022-10-17T17:23:21;15.40;99.90
36548;DHT22;22551;52.206;4.856;2022-10-17T17:28:23;15.40;99.90
36548;DHT22;22551;52.206;4.856;2022-10-17T17:33:27;15.40;99.90
36548;DHT22;22551;52.206;4.856;2022-10-17T17:38:32;15.30;99.90
36548;DHT22;22551;52.206;4.856;2022-10-17T17:43:35;15.30;99.90
36548;DHT22;22551;52.206;4.856;2022-10-17T17:48:37;15.20;99.90
36548;DHT22;22551;52.206;4.856;2022-10-17T17:53:41;15.20;99.90
36548;DHT22;22551;52.206;4.856;2022-10-17T17:58:45;15.20;99.90
36548;DHT22;22551;52.206;4.856;2022-10-17T18:03:49;15.10;99.90
36548;DHT22;22551;52.206;4.856;2022-10-17T18:08:55;15.10;99.90
36548;DHT22;22551;52.206;4.856;2022-10-17T18:14:00;15.00;99.90
36548;DHT22;22551;52.206;4.856;2022-10-17T18:19:04;15.00;99.90
36548;DHT22;22551;52.206;4.856;2022-10-17T18:24:09;14.90;99.90
36548;DHT22;22551;52.206;4.856;2022-10-17T18:29:14;14.90;99.90
36548;DHT22;22551;52.206;4.856;2022-10-17T18:34:16;14.80;99.90
36548;DHT22;22551;52.206;4.856;2022-10-17T18:39:20;14.80;99.90
36548;DHT22;22551;52.206;4.856;2022-10-17T18:44:22;14.80;99.90
36548;DHT22;22551;52.206;4.856;2022-10-17T18:49:24;14.80;99.90
36548;DHT22;22551;52.206;4.856;2022-10-17T18:54:28;14.70;99.90
36548;DHT22;22551;52.206;4.856;2022-10-17T18:59:34;14.70;99.90
36548;DHT22;22551;52.206;4.856;2022-10-17T19:04:38;14.60;99.90
36548;DHT22;22551;52.206;4.856;2022-10-17T19:09:42;14.60;99.90
36548;DHT22;22551;52.206;4.856;2022-10-17T19:14:44;14.60;99.90
36548;DHT22;22551;52.206;4.856;2022-10-17T19:19:46;14.50;99.90
36548;DHT22;22551;52.206;4.856;2022-10-17T19:24:53;14.40;99.90
36548;DHT22;22551;52.206;4.856;2022-10-17T19:29:55;14.40;99.90
36548;DHT22;22551;52.206;4.856;2022-10-17T19:34:58;14.40;99.90
36548;DHT22;22551;52.206;4.856;2022-10-17T19:40:03;14.40;99.90
36548;DHT22;22551;52.206;4.856;2022-10-17T19:45:07;14.30;99.90
36548;DHT22;22551;52.206;4.856;2022-10-17T19:50:11;14.30;99.90
36548;DHT22;22551;52.206;4.856;2022-10-17T19:55:15;14.30;99.90
36548;DHT22;22551;52.206;4.856;2022-10-17T20:00:17;14.20;99.90
36548;DHT22;22551;52.206;4.856;2022-10-17T20:05:21;14.10;99.90
36548;DHT22;22551;52.206;4.856;2022-10-17T20:10:25;14.10;99.90
36548;DHT22;22551;52.206;4.856;2022-10-17T20:15:29;14.10;99.90
36548;DHT22;22551;52.206;4.856;2022-10-17T20:20:34;14.10;99.90
36548;DHT22;22551;52.206;4.856;2022-10-17T20:25:38;14.00;99.90
36548;DHT22;22551;52.206;4.856;2022-10-17T20:30:42;14.00;99.90
36548;DHT22;22551;52.206;4.856;2022-10-17T20:35:46;14.00;99.90
36548;DHT22;22551;52.206;4.856;2022-10-17T20:40:49;13.90;99.90
36548;DHT22;22551;52.206;4.856;2022-10-17T20:45:51;13.90;99.90
36548;DHT22;22551;52.206;4.856;2022-10-17T20:50:55;13.90;99.90
36548;DHT22;22551;52.206;4.856;2022-10-17T20:56:03;13.90;99.90
36548;DHT22;22551;52.206;4.856;2022-10-17T21:01:07;13.80;99.90
36548;DHT22;22551;52.206;4.856;2022-10-17T21:06:10;13.80;99.90
36548;DHT22;22551;52.206;4.856;2022-10-17T21:11:16;13.80;99.90
36548;DHT22;22551;52.206;4.856;2022-10-17T21:16:19;13.80;99.90
36548;DHT22;22551;52.206;4.856;2022-10-17T21:21:23;13.80;99.90
36548;DHT22;22551;52.206;4.856;2022-10-17T21:26:30;13.70;99.90
36548;DHT22;22551;52.206;4.856;2022-10-17T21:31:35;13.70;99.90
36548;DHT22;22551;52.206;4.856;2022-10-17T21:36:38;13.70;99.90
36548;DHT22;22551;52.206;4.856;2022-10-17T21:41:43;13.60;99.90
36548;DHT22;22551;52.206;4.856;2022-10-17T21:46:46;13.60;99.90
36548;DHT22;22551;52.206;4.856;2022-10-17T21:51:50;13.60;99.90
36548;DHT22;22551;52.206;4.856;2022-10-17T21:56:56;13.50;99.90
36548;DHT22;22551;52.206;4.856;2022-10-17T22:01:59;13.50;99.90
36548;DHT22;22551;52.206;4.856;2022-10-17T22:07:01;13.40;99.90
36548;DHT22;22551;52.206;4.856;2022-10-17T22:12:04;13.40;99.90
36548;DHT22;22551;52.206;4.856;2022-10-17T22:17:07;13.50;99.90
36548;DHT22;22551;52.206;4.856;2022-10-17T22:22:09;13.30;99.90
36548;DHT22;22551;52.206;4.856;2022-10-17T22:27:13;13.30;99.90
36548;DHT22;22551;52.206;4.856;2022-10-17T22:32:15;13.30;99.90
36548;DHT22;22551;52.206;4.856;2022-10-17T22:37:17;13.30;99.90
36548;DHT22;22551;52.206;4.856;2022-10-17T22:42:20;13.20;99.90
36548;DHT22;22551;52.206;4.856;2022-10-17T22:47:23;13.20;99.90
36548;DHT22;22551;52.206;4.856;2022-10-17T22:52:25;13.10;99.90
36548;DHT22;22551;52.206;4.856;2022-10-17T22:57:28;13.10;99.90
36548;DHT22;22551;52.206;4.856;2022-10-17T23:02:30;13.10;99.90
36548;DHT22;22551;52.206;4.856;2022-10-17T23:07:33;13.00;99.90
36548;DHT22;22551;52.206;4.856;2022-10-17T23:12:37;13.00;99.90
36548;DHT22;22551;52.206;4.856;2022-10-17T23:17:39;13.00;99.90
36548;DHT22;22551;52.206;4.856;2022-10-17T23:22:41;13.00;99.90
36548;DHT22;22551;52.206;4.856;2022-10-17T23:27:45;12.90;99.90
36548;DHT22;22551;52.206;4.856;2022-10-17T23:32:47;12.90;99.90
36548;DHT22;22551;52.206;4.856;2022-10-17T23:37:49;12.80;99.90
36548;DHT22;22551;52.206;4.856;2022-10-17T23:42:56;12.80;99.90
36548;DHT22;22551;52.206;4.856;2022-10-17T23:47:58;12.80;99.90
36548;DHT22;22551;52.206;4.856;2022-10-17T23:53:00;12.80;99.90
36548;DHT22;22551;52.206;4.856;2022-10-17T23:58:04;12.80;99.90
